sensor_id;sensor_type;location;lat;lon;timestamp;P1;durP1;ratioP1;P2;durP2;ratioP2
15557;SDS011;7880;50.110;9.372;2023-02-17T00:01:08;14.538461538461538;;;9.461538461538462;;
15557;SDS011;7880;50.110;9.372;2023-02-17T00:06:11;15.746153846153849;;;10.038461538461537;;
15557;SDS011;7880;50.110;9.372;2023-02-17T00:11:17;17.099999999999998;;;10.56153846153846;;
15557;SDS011;7880;50.110;9.372;2023-02-17T00:16:28;17.338461538461537;;;10.961538461538462;;
15557;SDS011;7880;50.110;9.372;2023-02-17T00:21:27;17.638461538461538;;;11.36153846153846;;
15557;SDS011;7880;50.110;9.372;2023-02-17T00:26:37;19.692307692307686;;;11.89230769230769;;
15557;SDS011;7880;50.110;9.372;2023-02-17T00:31:46;19.22307692307692;;;12.130769230769225;;
15557;SDS011;7880;50.110;9.372;2023-02-17T00:36:39;19.22307692307692;;;12.130769230769225;;
15557;SDS011;7880;50.110;9.372;2023-02-17T00:41:44;21.530769230769234;;;11.36153846153846;;
15557;SDS011;7880;50.110;9.372;2023-02-17T00:46:47;19.099999999999998;;;11.461538461538462;;
15557;SDS011;7880;50.110;9.372;2023-02-17T00:51:51;18.73076923076923;;;10.492307692307692;;
15557;SDS011;7880;50.110;9.372;2023-02-17T00:56:56;14.300000000000002;;;10.230769230769234;;
15557;SDS011;7880;50.110;9.372;2023-02-17T01:02:00;17.838461538461537;;;10.66923076923077;;
15557;SDS011;7880;50.110;9.372;2023-02-17T01:07:03;16.638461538461538;;;10.8;;
15557;SDS011;7880;50.110;9.372;2023-02-17T01:12:21;19.24615384615385;;;10.099999999999998;;
15557;SDS011;7880;50.110;9.372;2023-02-17T01:17:16;15.269230769230765;;;10.230769230769234;;
15557;SDS011;7880;50.110;9.372;2023-02-17T01:22:19;13.038461538461538;;;10.400000000000002;;
15557;SDS011;7880;50.110;9.372;2023-02-17T01:27:20;15.846153846153847;;;9.86923076923077;;
15557;SDS011;7880;50.110;9.372;2023-02-17T01:32:24;14.0;;;9.561538461538461;;
15557;SDS011;7880;50.110;9.372;2023-02-17T01:37:30;18.86923076923077;;;10.092307692307694;;
15557;SDS011;7880;50.110;9.372;2023-02-17T01:42:34;16.669230769230765;;;9.730769230769234;;
15557;SDS011;7880;50.110;9.372;2023-02-17T01:47:43;17.199999999999996;;;10.292307692307693;;
15557;SDS011;7880;50.110;9.372;2023-02-17T01:52:44;15.5;;;9.83076923076923;;
15557;SDS011;7880;50.110;9.372;2023-02-17T01:57:50;14.930769230769233;;;9.33076923076923;;
15557;SDS011;7880;50.110;9.372;2023-02-17T02:02:55;18.707692307692305;;;11.261538461538464;;
15557;SDS011;7880;50.110;9.372;2023-02-17T02:07:03;16.869230769230775;;;11.530769230769229;;
15557;SDS011;7880;50.110;9.372;2023-02-17T02:12:15;16.16923076923077;;;10.400000000000002;;
15557;SDS011;7880;50.110;9.372;2023-02-17T02:17:20;16.20769230769231;;;10.400000000000002;;
15557;SDS011;7880;50.110;9.372;2023-02-17T02:22:17;18.169230769230765;;;10.730769230769235;;
15557;SDS011;7880;50.110;9.372;2023-02-17T02:27:26;16.815384615384616;;;10.16923076923077;;
15557;SDS011;7880;50.110;9.372;2023-02-17T02:32:38;15.292307692307693;;;10.63076923076923;;
15557;SDS011;7880;50.110;9.372;2023-02-17T02:37:31;17.161538461538463;;;10.530769230769229;;
15557;SDS011;7880;50.110;9.372;2023-02-17T02:42:34;18.623076923076916;;;9.900000000000002;;
15557;SDS011;7880;50.110;9.372;2023-02-17T02:47:41;18.107692307692307;;;11.430769230769233;;
15557;SDS011;7880;50.110;9.372;2023-02-17T02:52:45;14.553846153846157;;;10.223076923076924;;
15557;SDS011;7880;50.110;9.372;2023-02-17T02:57:48;16.47692307692307;;;10.66923076923077;;
15557;SDS011;7880;50.110;9.372;2023-02-17T03:02:58;17.861538461538466;;;10.39230769230769;;
15557;SDS011;7880;50.110;9.372;2023-02-17T03:08:12;18.36923076923077;;;10.36153846153846;;
15557;SDS011;7880;50.110;9.372;2023-02-17T03:13:05;20.438461538461542;;;11.230769230769235;;
15557;SDS011;7880;50.110;9.372;2023-02-17T03:18:08;19.41538461538462;;;10.761538461538464;;
15557;SDS011;7880;50.110;9.372;2023-02-17T03:23:12;16.20769230769231;;;10.66923076923077;;
15557;SDS011;7880;50.110;9.372;2023-02-17T03:28:18;19.861538461538462;;;10.56153846153846;;
15557;SDS011;7880;50.110;9.372;2023-02-17T03:33:20;15.023076923076928;;;9.792307692307693;;
15557;SDS011;7880;50.110;9.372;2023-02-17T03:38:24;19.23846153846154;;;12.2;;
15557;SDS011;7880;50.110;9.372;2023-02-17T03:43:27;20.83846153846154;;;10.900000000000004;;
15557;SDS011;7880;50.110;9.372;2023-02-17T03:48:31;16.75384615384615;;;10.592307692307694;;
15557;SDS011;7880;50.110;9.372;2023-02-17T03:53:37;21.176923076923078;;;10.33076923076923;;
15557;SDS011;7880;50.110;9.372;2023-02-17T03:58:40;19.338461538461537;;;9.86153846153846;;
15557;SDS011;7880;50.110;9.372;2023-02-17T04:03:44;17.038461538461537;;;10.099999999999998;;
15557;SDS011;7880;50.110;9.372;2023-02-17T04:08:48;15.946153846153846;;;9.153846153846153;;
15557;SDS011;7880;50.110;9.372;2023-02-17T04:13:55;15.907692307692304;;;10.069230769230769;;
15557;SDS011;7880;50.110;9.372;2023-02-17T04:18:56;18.715384615384618;;;10.038461538461538;;
15557;SDS011;7880;50.110;9.372;2023-02-17T04:24:00;14.407692307692304;;;10.338461538461539;;
15557;SDS011;7880;50.110;9.372;2023-02-17T04:29:03;21.746153846153845;;;9.900000000000002;;
15557;SDS011;7880;50.110;9.372;2023-02-17T04:34:08;16.838461538461537;;;10.430769230769231;;
15557;SDS011;7880;50.110;9.372;2023-02-17T04:39:13;18.838461538461537;;;11.3;;
15557;SDS011;7880;50.110;9.372;2023-02-17T04:44:16;17.76923076923077;;;10.400000000000002;;
15557;SDS011;7880;50.110;9.372;2023-02-17T04:49:29;15.192307692307692;;;10.099999999999998;;
15557;SDS011;7880;50.110;9.372;2023-02-17T04:54:24;15.038461538461538;;;10.63846153846154;;
15557;SDS011;7880;50.110;9.372;2023-02-17T04:59:27;15.407692307692304;;;9.630769230769229;;
15557;SDS011;7880;50.110;9.372;2023-02-17T05:04:31;17.169230769230765;;;9.930769230769231;;
15557;SDS011;7880;50.110;9.372;2023-02-17T05:09:35;15.969230769230771;;;9.93846153846154;;
15557;SDS011;7880;50.110;9.372;2023-02-17T05:14:38;19.5;;;9.561538461538461;;
15557;SDS011;7880;50.110;9.372;2023-02-17T05:19:43;13.407692307692304;;;8.5;;
15557;SDS011;7880;50.110;9.372;2023-02-17T05:24:47;14.038461538461544;;;8.799999999999999;;
15557;SDS011;7880;50.110;9.372;2023-02-17T05:29:53;15.21538461538462;;;9.069230769230769;;
15557;SDS011;7880;50.110;9.372;2023-02-17T05:35:02;13.400000000000004;;;9.33076923076923;;
15557;SDS011;7880;50.110;9.372;2023-02-17T05:39:59;10.530769230769229;;;8.530769230769229;;
15557;SDS011;7880;50.110;9.372;2023-02-17T05:45:07;13.207692307692307;;;8.299999999999999;;
15557;SDS011;7880;50.110;9.372;2023-02-17T05:50:08;16.94615384615384;;;8.76923076923077;;
15557;SDS011;7880;50.110;9.372;2023-02-17T05:55:13;16.20769230769231;;;10.299999999999999;;
15557;SDS011;7880;50.110;9.372;2023-02-17T06:00:21;13.061538461538458;;;8.530769230769229;;
15557;SDS011;7880;50.110;9.372;2023-02-17T06:05:22;13.938461538461542;;;9.761538461538464;;
15557;SDS011;7880;50.110;9.372;2023-02-17T06:10:25;12.292307692307693;;;9.692307692307692;;
15557;SDS011;7880;50.110;9.372;2023-02-17T06:15:34;11.5;;;8.930769230769231;;
15557;SDS011;7880;50.110;9.372;2023-02-17T06:20:33;14.930769230769233;;;10.36923076923077;;
15557;SDS011;7880;50.110;9.372;2023-02-17T06:25:50;11.192307692307692;;;8.992307692307694;;
15557;SDS011;7880;50.110;9.372;2023-02-17T06:30:42;12.49230769230769;;;9.730769230769234;;
15557;SDS011;7880;50.110;9.372;2023-02-17T06:35:56;12.753846153846155;;;9.83076923076923;;
15557;SDS011;7880;50.110;9.372;2023-02-17T06:41:07;16.23076923076923;;;10.946153846153846;;
15557;SDS011;7880;50.110;9.372;2023-02-17T06:46:08;13.00769230769231;;;10.43846153846154;;
15557;SDS011;7880;50.110;9.372;2023-02-17T06:51:09;13.661538461538463;;;10.230769230769234;;
15557;SDS011;7880;50.110;9.372;2023-02-17T06:56:13;10.33076923076923;;;8.569230769230769;;
15557;SDS011;7880;50.110;9.372;2023-02-17T07:01:34;9.538461538461538;;;8.169230769230769;;
15557;SDS011;7880;50.110;9.372;2023-02-17T07:07:15;11.192307692307692;;;8.5;;
15557;SDS011;7880;50.110;9.372;2023-02-17T07:12:05;11.661538461538461;;;9.099999999999998;;
15557;SDS011;7880;50.110;9.372;2023-02-17T07:17:09;14.115384615384615;;;9.761538461538464;;
15557;SDS011;7880;50.110;9.372;2023-02-17T07:22:14;10.13076923076923;;;8.46153846153846;;
15557;SDS011;7880;50.110;9.372;2023-02-17T07:27:18;11.099999999999996;;;9.900000000000002;;
15557;SDS011;7880;50.110;9.372;2023-02-17T07:32:25;11.961538461538462;;;10.261538461538464;;
15557;SDS011;7880;50.110;9.372;2023-02-17T07:37:29;11.969230769230771;;;8.969230769230771;;
15557;SDS011;7880;50.110;9.372;2023-02-17T07:42:36;13.676923076923073;;;10.5;;
15557;SDS011;7880;50.110;9.372;2023-02-17T07:47:46;11.83076923076923;;;9.430769230769231;;
15557;SDS011;7880;50.110;9.372;2023-02-17T07:52:45;11.030769230769229;;;8.330769230769231;;
15557;SDS011;7880;50.110;9.372;2023-02-17T07:57:47;13.769230769230765;;;10.230769230769234;;
15557;SDS011;7880;50.110;9.372;2023-02-17T08:02:52;11.86153846153846;;;7.36153846153846;;
15557;SDS011;7880;50.110;9.372;2023-02-17T08:14:52;7.907692307692306;;;6.561538461538462;;
15557;SDS011;7880;50.110;9.372;2023-02-17T08:19:55;11.43846153846154;;;7.900000000000001;;
15557;SDS011;7880;50.110;9.372;2023-02-17T08:24:59;13.13846153846154;;;6.830769230769231;;
15557;SDS011;7880;50.110;9.372;2023-02-17T08:30:08;7.561538461538462;;;6.761538461538464;;
15557;SDS011;7880;50.110;9.372;2023-02-17T08:35:14;8.969230769230771;;;7.200000000000002;;
15557;SDS011;7880;50.110;9.372;2023-02-17T08:40:17;8.669230769230769;;;7.769230769230769;;
15557;SDS011;7880;50.110;9.372;2023-02-17T08:45:33;11.30769230769231;;;9.400000000000002;;
15557;SDS011;7880;50.110;9.372;2023-02-17T08:50:23;10.13076923076923;;;8.73076923076923;;
15557;SDS011;7880;50.110;9.372;2023-02-17T08:55:25;11.2;;;8.930769230769231;;
15557;SDS011;7880;50.110;9.372;2023-02-17T09:00:28;12.400000000000004;;;9.161538461538463;;
15557;SDS011;7880;50.110;9.372;2023-02-17T09:05:32;12.13846153846154;;;9.569230769230769;;
15557;SDS011;7880;50.110;9.372;2023-02-17T09:10:38;10.36153846153846;;;9.069230769230769;;
15557;SDS011;7880;50.110;9.372;2023-02-17T09:15:41;9.730769230769234;;;8.099999999999998;;
15557;SDS011;7880;50.110;9.372;2023-02-17T09:20:48;9.376923076923076;;;7.838461538461539;;
15557;SDS011;7880;50.110;9.372;2023-02-17T09:25:59;11.407692307692306;;;9.230769230769234;;
15557;SDS011;7880;50.110;9.372;2023-02-17T09:30:54;15.099999999999996;;;10.299999999999999;;
15557;SDS011;7880;50.110;9.372;2023-02-17T09:36:01;13.838461538461537;;;9.930769230769231;;
15557;SDS011;7880;50.110;9.372;2023-02-17T09:41:04;10.530769230769229;;;9.430769230769231;;
15557;SDS011;7880;50.110;9.372;2023-02-17T09:46:13;10.307692307692308;;;8.36923076923077;;
15557;SDS011;7880;50.110;9.372;2023-02-17T09:51:12;13.838461538461537;;;10.430769230769231;;
15557;SDS011;7880;50.110;9.372;2023-02-17T09:56:15;11.192307692307692;;;9.36153846153846;;
15557;SDS011;7880;50.110;9.372;2023-02-17T10:01:27;25.307692307692303;;;11.907692307692308;;
15557;SDS011;7880;50.110;9.372;2023-02-17T10:06:25;25.307692307692303;;;11.907692307692308;;
15557;SDS011;7880;50.110;9.372;2023-02-17T10:11:34;11.053846153846157;;;8.830769230769231;;
15557;SDS011;7880;50.110;9.372;2023-02-17T10:16:39;11.030769230769229;;;9.230769230769234;;
15557;SDS011;7880;50.110;9.372;2023-02-17T10:21:43;12.246153846153844;;;9.423076923076925;;
15557;SDS011;7880;50.110;9.372;2023-02-17T10:26:46;11.400000000000004;;;9.5;;
15557;SDS011;7880;50.110;9.372;2023-02-17T10:31:47;11.469230769230771;;;9.930769230769231;;
15557;SDS011;7880;50.110;9.372;2023-02-17T10:36:54;12.823076923076924;;;10.853846153846153;;
15557;SDS011;7880;50.110;9.372;2023-02-17T10:42:04;13.99230769230769;;;12.36153846153846;;
15557;SDS011;7880;50.110;9.372;2023-02-17T10:47:07;16.0;;;13.400000000000004;;
15557;SDS011;7880;50.110;9.372;2023-02-17T10:52:09;16.099999999999998;;;13.599999999999996;;
15557;SDS011;7880;50.110;9.372;2023-02-17T10:57:16;15.36153846153846;;;13.630769230769225;;
15557;SDS011;7880;50.110;9.372;2023-02-17T11:02:24;18.06923076923077;;;14.330769230769231;;
15557;SDS011;7880;50.110;9.372;2023-02-17T11:07:21;17.13076923076923;;;14.661538461538463;;
15557;SDS011;7880;50.110;9.372;2023-02-17T11:12:25;23.092307692307696;;;20.692307692307686;;
15557;SDS011;7880;50.110;9.372;2023-02-17T11:17:33;28.44615384615385;;;24.807692307692317;;
15557;SDS011;7880;50.110;9.372;2023-02-17T11:22:36;18.953846153846158;;;15.89230769230769;;
15557;SDS011;7880;50.110;9.372;2023-02-17T11:27:37;18.430769230769233;;;15.030769230769229;;
15557;SDS011;7880;50.110;9.372;2023-02-17T11:32:40;21.569230769230767;;;18.26153846153846;;
15557;SDS011;7880;50.110;9.372;2023-02-17T11:37:46;21.4;;;18.5;;
15557;SDS011;7880;50.110;9.372;2023-02-17T11:42:56;15.769230769230765;;;13.099999999999996;;
15557;SDS011;7880;50.110;9.372;2023-02-17T11:47:55;15.699999999999998;;;12.49230769230769;;
15557;SDS011;7880;50.110;9.372;2023-02-17T11:53:01;13.269230769230765;;;11.630769230769229;;
15557;SDS011;7880;50.110;9.372;2023-02-17T11:58:07;13.576923076923073;;;12.107692307692306;;
15557;SDS011;7880;50.110;9.372;2023-02-17T12:03:25;15.10769230769231;;;11.469230769230771;;
15557;SDS011;7880;50.110;9.372;2023-02-17T12:08:19;12.030769230769229;;;10.8;;
15557;SDS011;7880;50.110;9.372;2023-02-17T12:13:26;10.992307692307692;;;8.330769230769231;;
15557;SDS011;7880;50.110;9.372;2023-02-17T12:17:41;11.400000000000004;;;9.900000000000002;;
15557;SDS011;7880;50.110;9.372;2023-02-17T12:22:44;11.707692307692307;;;7.93076923076923;;
15557;SDS011;7880;50.110;9.372;2023-02-17T12:27:49;8.853846153846156;;;7.200000000000002;;
15557;SDS011;7880;50.110;9.372;2023-02-17T12:33:03;10.238461538461536;;;8.030769230769229;;
15557;SDS011;7880;50.110;9.372;2023-02-17T12:38:00;9.599999999999998;;;7.599999999999999;;
15557;SDS011;7880;50.110;9.372;2023-02-17T12:43:05;9.492307692307692;;;8.292307692307693;;
15557;SDS011;7880;50.110;9.372;2023-02-17T12:48:16;11.56153846153846;;;10.23846153846154;;
15557;SDS011;7880;50.110;9.372;2023-02-17T12:53:14;11.600000000000001;;;9.630769230769229;;
15557;SDS011;7880;50.110;9.372;2023-02-17T12:58:32;9.592307692307692;;;8.592307692307692;;
15557;SDS011;7880;50.110;9.372;2023-02-17T13:03:21;10.83076923076923;;;8.830769230769231;;
15557;SDS011;7880;50.110;9.372;2023-02-17T13:08:26;11.33076923076923;;;9.400000000000002;;
15557;SDS011;7880;50.110;9.372;2023-02-17T13:13:34;11.938461538461542;;;6.799999999999998;;
15557;SDS011;7880;50.110;9.372;2023-02-17T13:18:36;8.261538461538464;;;6.561538461538462;;
15557;SDS011;7880;50.110;9.372;2023-02-17T13:23:40;8.430769230769231;;;7.530769230769229;;
15557;SDS011;7880;50.110;9.372;2023-02-17T13:28:45;17.515384615384615;;;13.753846153846151;;
15557;SDS011;7880;50.110;9.372;2023-02-17T13:33:50;11.261538461538464;;;9.599999999999998;;
15557;SDS011;7880;50.110;9.372;2023-02-17T13:38:57;21.37692307692308;;;15.369230769230775;;
15557;SDS011;7880;50.110;9.372;2023-02-17T13:43:57;14.330769230769231;;;9.89230769230769;;
15557;SDS011;7880;50.110;9.372;2023-02-17T13:49:04;9.107692307692309;;;6.769230769230769;;
15557;SDS011;7880;50.110;9.372;2023-02-17T13:54:11;6.230769230769231;;;5.261538461538462;;
15557;SDS011;7880;50.110;9.372;2023-02-17T13:59:13;6.36153846153846;;;5.630769230769232;;
15557;SDS011;7880;50.110;9.372;2023-02-17T14:04:19;6.169230769230769;;;5.46923076923077;;
15557;SDS011;7880;50.110;9.372;2023-02-17T14:09:28;5.43076923076923;;;4.33076923076923;;
15557;SDS011;7880;50.110;9.372;2023-02-17T14:14:27;4.23076923076923;;;3.630769230769232;;
15557;SDS011;7880;50.110;9.372;2023-02-17T14:19:40;3.8307692307692305;;;3.130769230769232;;
15557;SDS011;7880;50.110;9.372;2023-02-17T14:24:36;4.200000000000001;;;3.530769230769231;;
15557;SDS011;7880;50.110;9.372;2023-02-17T14:29:41;5.56923076923077;;;3.7999999999999994;;
15557;SDS011;7880;50.110;9.372;2023-02-17T14:34:44;4.269230769230769;;;3.869230769230768;;
15557;SDS011;7880;50.110;9.372;2023-02-17T14:39:49;4.730769230769231;;;4.0307692307692315;;
15557;SDS011;7880;50.110;9.372;2023-02-17T14:44:55;5.130769230769232;;;4.06923076923077;;
15557;SDS011;7880;50.110;9.372;2023-02-17T14:49:58;5.269230769230769;;;3.969230769230769;;
15557;SDS011;7880;50.110;9.372;2023-02-17T14:55:08;5.200000000000001;;;4.200000000000001;;
15557;SDS011;7880;50.110;9.372;2023-02-17T15:00:11;4.299999999999999;;;3.7000000000000006;;
15557;SDS011;7880;50.110;9.372;2023-02-17T15:05:13;4.33076923076923;;;3.93076923076923;;
15557;SDS011;7880;50.110;9.372;2023-02-17T15:10:58;4.96923076923077;;;3.7999999999999994;;
15557;SDS011;7880;50.110;9.372;2023-02-17T15:16:01;5.200000000000001;;;4.799999999999999;;
15557;SDS011;7880;50.110;9.372;2023-02-17T15:21:14;7.130769230769232;;;5.969230769230771;;
15557;SDS011;7880;50.110;9.372;2023-02-17T15:26:10;7.769230769230769;;;3.7999999999999994;;
15557;SDS011;7880;50.110;9.372;2023-02-17T15:31:14;5.4923076923076914;;;4.1000000000000005;;
15557;SDS011;7880;50.110;9.372;2023-02-17T15:36:19;6.869230769230768;;;5.130769230769232;;
15557;SDS011;7880;50.110;9.372;2023-02-17T15:41:22;5.238461538461538;;;3.869230769230768;;
15557;SDS011;7880;50.110;9.372;2023-02-17T15:46:27;5.038461538461539;;;4.16923076923077;;
15557;SDS011;7880;50.110;9.372;2023-02-17T15:51:29;5.969230769230771;;;3.630769230769232;;
15557;SDS011;7880;50.110;9.372;2023-02-17T15:56:36;6.200000000000002;;;5.5;;
15557;SDS011;7880;50.110;9.372;2023-02-17T16:01:37;9.83076923076923;;;8.830769230769231;;
15557;SDS011;7880;50.110;9.372;2023-02-17T16:06:43;5.53076923076923;;;4.93076923076923;;
15557;SDS011;7880;50.110;9.372;2023-02-17T16:11:50;6.161538461538464;;;4.923076923076923;;
15557;SDS011;7880;50.110;9.372;2023-02-17T16:16:57;7.838461538461539;;;5.1000000000000005;;
15557;SDS011;7880;50.110;9.372;2023-02-17T16:21:55;8.36923076923077;;;5.869230769230768;;
15557;SDS011;7880;50.110;9.372;2023-02-17T16:27:02;5.700000000000002;;;4.200000000000001;;
15557;SDS011;7880;50.110;9.372;2023-02-17T16:32:10;7.407692307692309;;;4.5;;
15557;SDS011;7880;50.110;9.372;2023-02-17T16:37:13;6.4;;;4.530769230769231;;
15557;SDS011;7880;50.110;9.372;2023-02-17T16:42:11;7.60769230769231;;;4.3999999999999995;;
15557;SDS011;7880;50.110;9.372;2023-02-17T16:47:17;5.0;;;4.299999999999999;;
15557;SDS011;7880;50.110;9.372;2023-02-17T16:52:21;5.869230769230768;;;4.769230769230769;;
15557;SDS011;7880;50.110;9.372;2023-02-17T16:57:25;5.561538461538462;;;4.299999999999999;;
15557;SDS011;7880;50.110;9.372;2023-02-17T17:02:31;7.669230769230769;;;5.3307692307692305;;
15557;SDS011;7880;50.110;9.372;2023-02-17T17:07:36;4.8999999999999995;;;4.0307692307692315;;
15557;SDS011;7880;50.110;9.372;2023-02-17T17:12:46;6.869230769230768;;;5.46923076923077;;
15557;SDS011;7880;50.110;9.372;2023-02-17T17:17:46;8.438461538461537;;;4.0;;
15557;SDS011;7880;50.110;9.372;2023-02-17T17:22:50;6.330769230769231;;;5.200000000000001;;
15557;SDS011;7880;50.110;9.372;2023-02-17T17:27:56;5.53076923076923;;;4.299999999999999;;
15557;SDS011;7880;50.110;9.372;2023-02-17T17:33:05;5.238461538461538;;;3.5;;
15557;SDS011;7880;50.110;9.372;2023-02-17T17:38:03;5.961538461538459;;;4.730769230769231;;
15557;SDS011;7880;50.110;9.372;2023-02-17T17:43:10;4.838461538461538;;;3.899999999999999;;
15557;SDS011;7880;50.110;9.372;2023-02-17T17:48:12;5.43076923076923;;;4.5;;
15557;SDS011;7880;50.110;9.372;2023-02-17T17:53:17;4.3999999999999995;;;4.0;;
15557;SDS011;7880;50.110;9.372;2023-02-17T17:58:21;8.392307692307691;;;4.799999999999999;;
15557;SDS011;7880;50.110;9.372;2023-02-17T18:03:25;5.438461538461538;;;4.269230769230769;;
15557;SDS011;7880;50.110;9.372;2023-02-17T18:08:29;8.13076923076923;;;6.530769230769229;;
15557;SDS011;7880;50.110;9.372;2023-02-17T18:13:44;7.984615384615383;;;4.369230769230769;;
15557;SDS011;7880;50.110;9.372;2023-02-17T18:18:38;7.761538461538464;;;6.799999999999998;;
15557;SDS011;7880;50.110;9.372;2023-02-17T18:23:44;7.707692307692307;;;4.06923076923077;;
15557;SDS011;7880;50.110;9.372;2023-02-17T18:29:06;6.1;;;5.5;;
15557;SDS011;7880;50.110;9.372;2023-02-17T18:33:53;5.369230769230768;;;4.799999999999999;;
15557;SDS011;7880;50.110;9.372;2023-02-17T18:38:58;4.16923076923077;;;3.7692307692307705;;
15557;SDS011;7880;50.110;9.372;2023-02-17T18:44:02;6.438461538461538;;;5.369230769230768;;
15557;SDS011;7880;50.110;9.372;2023-02-17T18:49:10;6.838461538461539;;;4.799999999999999;;
15557;SDS011;7880;50.110;9.372;2023-02-17T18:54:10;8.069230769230769;;;5.6;;
15557;SDS011;7880;50.110;9.372;2023-02-17T18:59:16;6.046153846153847;;;5.346153846153844;;
15557;SDS011;7880;50.110;9.372;2023-02-17T19:04:20;5.869230769230768;;;3.899999999999999;;
15557;SDS011;7880;50.110;9.372;2023-02-17T19:09:29;5.807692307692306;;;4.2384615384615385;;
15557;SDS011;7880;50.110;9.372;2023-02-17T19:14:37;6.769230769230769;;;4.5;;
15557;SDS011;7880;50.110;9.372;2023-02-17T19:19:36;4.2615384615384615;;;3.630769230769232;;
15557;SDS011;7880;50.110;9.372;2023-02-17T19:24:48;7.292307692307693;;;5.061538461538462;;
15557;SDS011;7880;50.110;9.372;2023-02-17T19:29:42;6.061538461538462;;;4.2615384615384615;;
15557;SDS011;7880;50.110;9.372;2023-02-17T19:34:46;5.730769230769231;;;4.3999999999999995;;
15557;SDS011;7880;50.110;9.372;2023-02-17T19:39:51;4.746153846153845;;;3.8461538461538463;;
15557;SDS011;7880;50.110;9.372;2023-02-17T19:44:55;5.130769230769232;;;3.899999999999999;;
15557;SDS011;7880;50.110;9.372;2023-02-17T19:49:59;4.869230769230769;;;3.869230769230768;;
15557;SDS011;7880;50.110;9.372;2023-02-17T19:55:11;5.6;;;4.8999999999999995;;
15557;SDS011;7880;50.110;9.372;2023-02-17T20:00:10;5.884615384615385;;;4.530769230769231;;
15557;SDS011;7880;50.110;9.372;2023-02-17T20:05:13;7.169230769230769;;;4.0;;
15557;SDS011;7880;50.110;9.372;2023-02-17T20:10:21;6.661538461538461;;;5.161538461538462;;
15557;SDS011;7880;50.110;9.372;2023-02-17T20:15:23;5.446153846153847;;;4.200000000000001;;
15557;SDS011;7880;50.110;9.372;2023-02-17T20:20:35;5.4;;;4.700000000000001;;
15557;SDS011;7880;50.110;9.372;2023-02-17T20:25:38;6.438461538461538;;;4.569230769230769;;
15557;SDS011;7880;50.110;9.372;2023-02-17T20:30:36;6.061538461538462;;;5.023076923076922;;
15557;SDS011;7880;50.110;9.372;2023-02-17T20:35:39;5.4923076923076914;;;4.799999999999999;;
15557;SDS011;7880;50.110;9.372;2023-02-17T20:40:51;6.36153846153846;;;5.161538461538462;;
15557;SDS011;7880;50.110;9.372;2023-02-17T20:45:53;7.869230769230768;;;5.769230769230769;;
15557;SDS011;7880;50.110;9.372;2023-02-17T20:50:56;8.007692307692306;;;5.56923076923077;;
15557;SDS011;7880;50.110;9.372;2023-02-17T20:55:58;7.338461538461539;;;5.969230769230771;;
15557;SDS011;7880;50.110;9.372;2023-02-17T21:01:04;8.0;;;6.161538461538462;;
15557;SDS011;7880;50.110;9.372;2023-02-17T21:06:12;8.73076923076923;;;5.93076923076923;;
15557;SDS011;7880;50.110;9.372;2023-02-17T21:11:11;6.769230769230767;;;6.069230769230769;;
15557;SDS011;7880;50.110;9.372;2023-02-17T21:16:14;8.86923076923077;;;6.630769230769232;;
15557;SDS011;7880;50.110;9.372;2023-02-17T21:21:18;8.16153846153846;;;6.907692307692307;;
15557;SDS011;7880;50.110;9.372;2023-02-17T21:26:24;11.292307692307693;;;6.730769230769231;;
15557;SDS011;7880;50.110;9.372;2023-02-17T21:31:28;8.069230769230769;;;6.700000000000002;;
15557;SDS011;7880;50.110;9.372;2023-02-17T21:36:30;8.63846153846154;;;6.83846153846154;;
15557;SDS011;7880;50.110;9.372;2023-02-17T21:41:35;8.823076923076924;;;7.292307692307693;;
15557;SDS011;7880;50.110;9.372;2023-02-17T21:46:42;11.553846153846157;;;8.530769230769229;;
15557;SDS011;7880;50.110;9.372;2023-02-17T21:51:44;10.0;;;8.030769230769229;;
15557;SDS011;7880;50.110;9.372;2023-02-17T21:56:47;9.969230769230771;;;8.599999999999998;;
15557;SDS011;7880;50.110;9.372;2023-02-17T22:01:53;9.823076923076924;;;8.561538461538461;;
15557;SDS011;7880;50.110;9.372;2023-02-17T22:06:59;11.630769230769229;;;9.461538461538462;;
15557;SDS011;7880;50.110;9.372;2023-02-17T22:12:02;12.792307692307693;;;10.192307692307692;;
15557;SDS011;7880;50.110;9.372;2023-02-17T22:17:05;13.961538461538462;;;9.36153846153846;;
15557;SDS011;7880;50.110;9.372;2023-02-17T22:22:09;11.400000000000004;;;8.830769230769231;;
15557;SDS011;7880;50.110;9.372;2023-02-17T22:26:07;12.407692307692312;;;10.207692307692305;;
15557;SDS011;7880;50.110;9.372;2023-02-17T22:31:10;11.469230769230771;;;8.069230769230769;;